Limehouse, South Carolina
Current Conditions -  °F | °C
As of 12:53 PM on Saturday 25 Oct 2014 (Local Time) from KSAV Reporting Station
Clear Clear  
Wind Chill: 75°   Ceiling: Unl
Heat Index: 75°   Visibility: 10mi
Dew Point: 48°   Wind: 7mph
Humidity: 38%   Direction: 10°N
Pressure: 30.02"   Gusts: NA
Location:  32.2576°N, 81.057°W
Report Text: KSAV 251653Z 01006KT 10SM CLR 24/09 A3002 RMK AO2 SLP164 T02390089
Loading
Personal Weather Stations






























Interactive Weather Map
Tropical Storm Tracking
New forecast layout! Learn more

10-Day Weather Forecast

Advertisements
Track Severe Weather on mobile